Portada
METAR-TAF:

METAR-TAF

Aeroports :

Anguilla, Anguilla

latitud: 18-12-17N, longitud: 063-03-18W, altitud: 31 m

Observació

L'informe es va fer fa 54 minuts, a les 13:00 UTC
Vent 8 kt del Est/Sud-Est
Temperatura 28°C
Humitat 74%
Pressió 1012 hPa
Visibilitat 10 km o més
Núvols disperses a una alçada de 2000 ft

METAR: TQPF 181300Z 11008KT 9999 SCT020 28/23 Q1012

Hora: 09:54 (13:54 UTC)

Pronòstic

L'informe es va fer fa 2 hores i 54 minuts, a les 11:00 UTC
Pronòstic vàlid del 18 a les 12 UTC al 19 a les 12 UTC
Vent 7 kt del Est
Visibilitat 10 km o més
Núvols disperses a una alçada de 1800 ft
Probabilitat 40% :
Temporalment
l' 18 a les 16 UTC al 18 a les 24 UTC
xàfecs de pluja

TAF: TQPF 181100Z 1812/1912 08007KT 9999 SCT018 PROB40 TEMPO 1816/1824 SHRA

Observacions i pronòstics meteorològics de més de 4000 aeroports (METAR i TAF).

Les estacions disponibles són els punts grocs i vermells al mapa.

Posi el ratolí al punt desitjat per veure el nom de l'estació.

Feu clic per veure les observacions i els pronòstics meteorològics.

Per canviar el mapa: feu clic els botons verds amb una creu de color negre per apropar; al botó verd amb un guió per allunyar la imatge; o en les fletxes verdes per a mapes adjacents.


METAR-TAF: